Terminal Aerodrome Forecast
Issued by NWS

Home | Current Version | Previous Version | Text Only | Print | Product List | Glossary On
Versions: 1 2 3 4 5 6 7 8 9 10 11 12 13
000
FTUS42 KMLB 281120
TAFISM
TAF
KISM 281120Z 2812/2912 VRB02KT P6SM SKC
     FM281400 04006KT P6SM SCT050
     FM281700 05010KT P6SM VCSH SCT040 BKN080
     FM290100 01006KT P6SM SKC
     FM290600 00000KT P6SM BKN250=

USA.gov is the U.S. government's official web portal to all federal, state and local government web resources and services.